sensor_id;sensor_type;location;lat;lon;timestamp;P1;durP1;ratioP1;P2;durP2;ratioP2
25639;SDS011;13497;48.322;16.204;2024-03-07T00:01:29;22.33;;;15.20;;
25639;SDS011;13497;48.322;16.204;2024-03-07T00:03:57;26.38;;;16.65;;
25639;SDS011;13497;48.322;16.204;2024-03-07T00:06:22;23.00;;;15.50;;
25639;SDS011;13497;48.322;16.204;2024-03-07T00:08:48;27.10;;;15.85;;
25639;SDS011;13497;48.322;16.204;2024-03-07T00:11:13;21.65;;;14.52;;
25639;SDS011;13497;48.322;16.204;2024-03-07T00:13:39;34.90;;;24.58;;
25639;SDS011;13497;48.322;16.204;2024-03-07T00:16:05;24.40;;;15.25;;
25639;SDS011;13497;48.322;16.204;2024-03-07T00:18:31;27.50;;;16.13;;
25639;SDS011;13497;48.322;16.204;2024-03-07T00:20:57;23.83;;;15.63;;
25639;SDS011;13497;48.322;16.204;2024-03-07T00:23:22;25.55;;;22.55;;
25639;SDS011;13497;48.322;16.204;2024-03-07T00:25:48;24.88;;;17.70;;
25639;SDS011;13497;48.322;16.204;2024-03-07T00:28:14;21.73;;;15.45;;
25639;SDS011;13497;48.322;16.204;2024-03-07T00:30:42;27.45;;;23.55;;
25639;SDS011;13497;48.322;16.204;2024-03-07T00:33:10;20.40;;;14.73;;
25639;SDS011;13497;48.322;16.204;2024-03-07T00:35:36;21.15;;;13.98;;
25639;SDS011;13497;48.322;16.204;2024-03-07T00:38:02;21.05;;;16.10;;
25639;SDS011;13497;48.322;16.204;2024-03-07T00:40:29;22.80;;;14.35;;
25639;SDS011;13497;48.322;16.204;2024-03-07T00:42:54;22.55;;;16.13;;
25639;SDS011;13497;48.322;16.204;2024-03-07T00:45:20;21.98;;;15.40;;
25639;SDS011;13497;48.322;16.204;2024-03-07T00:47:46;17.02;;;12.73;;
25639;SDS011;13497;48.322;16.204;2024-03-07T00:50:13;20.38;;;14.05;;
25639;SDS011;13497;48.322;16.204;2024-03-07T00:52:39;21.52;;;13.70;;
25639;SDS011;13497;48.322;16.204;2024-03-07T00:55:05;22.52;;;16.02;;
25639;SDS011;13497;48.322;16.204;2024-03-07T00:57:35;19.05;;;12.82;;
25639;SDS011;13497;48.322;16.204;2024-03-07T01:00:01;20.85;;;13.48;;
25639;SDS011;13497;48.322;16.204;2024-03-07T01:02:28;19.17;;;14.63;;
25639;SDS011;13497;48.322;16.204;2024-03-07T01:04:54;18.33;;;12.80;;
25639;SDS011;13497;48.322;16.204;2024-03-07T01:07:20;20.08;;;13.02;;
25639;SDS011;13497;48.322;16.204;2024-03-07T01:09:46;16.90;;;13.18;;
25639;SDS011;13497;48.322;16.204;2024-03-07T01:12:12;17.23;;;13.23;;
25639;SDS011;13497;48.322;16.204;2024-03-07T01:14:38;19.75;;;13.77;;
25639;SDS011;13497;48.322;16.204;2024-03-07T01:17:04;23.63;;;16.85;;
25639;SDS011;13497;48.322;16.204;2024-03-07T01:19:32;22.52;;;14.75;;
25639;SDS011;13497;48.322;16.204;2024-03-07T01:21:58;24.13;;;19.17;;
25639;SDS011;13497;48.322;16.204;2024-03-07T01:24:24;23.48;;;16.55;;
25639;SDS011;13497;48.322;16.204;2024-03-07T01:26:50;28.48;;;18.23;;
25639;SDS011;13497;48.322;16.204;2024-03-07T01:29:16;24.63;;;17.52;;
25639;SDS011;13497;48.322;16.204;2024-03-07T01:31:42;27.73;;;16.25;;
25639;SDS011;13497;48.322;16.204;2024-03-07T01:34:08;26.40;;;16.58;;
25639;SDS011;13497;48.322;16.204;2024-03-07T01:36:33;26.85;;;17.58;;
25639;SDS011;13497;48.322;16.204;2024-03-07T01:38:59;25.25;;;17.00;;
25639;SDS011;13497;48.322;16.204;2024-03-07T01:41:25;26.05;;;17.23;;
25639;SDS011;13497;48.322;16.204;2024-03-07T01:43:50;24.60;;;15.90;;
25639;SDS011;13497;48.322;16.204;2024-03-07T01:46:16;26.60;;;17.58;;
25639;SDS011;13497;48.322;16.204;2024-03-07T01:48:42;23.48;;;15.38;;
25639;SDS011;13497;48.322;16.204;2024-03-07T01:51:08;22.80;;;14.75;;
25639;SDS011;13497;48.322;16.204;2024-03-07T01:53:34;26.52;;;17.92;;
25639;SDS011;13497;48.322;16.204;2024-03-07T01:56:00;30.20;;;17.00;;
25639;SDS011;13497;48.322;16.204;2024-03-07T01:58:27;22.65;;;15.65;;
25639;SDS011;13497;48.322;16.204;2024-03-07T02:00:56;26.65;;;17.05;;
25639;SDS011;13497;48.322;16.204;2024-03-07T02:03:23;22.50;;;14.82;;
25639;SDS011;13497;48.322;16.204;2024-03-07T02:05:49;21.63;;;14.75;;
25639;SDS011;13497;48.322;16.204;2024-03-07T02:08:17;20.98;;;15.05;;
25639;SDS011;13497;48.322;16.204;2024-03-07T02:10:44;20.50;;;14.13;;
25639;SDS011;13497;48.322;16.204;2024-03-07T02:13:11;21.67;;;15.13;;
25639;SDS011;13497;48.322;16.204;2024-03-07T02:15:37;20.77;;;13.10;;
25639;SDS011;13497;48.322;16.204;2024-03-07T02:18:02;19.02;;;12.95;;
25639;SDS011;13497;48.322;16.204;2024-03-07T02:20:28;21.70;;;16.30;;
25639;SDS011;13497;48.322;16.204;2024-03-07T02:22:54;21.98;;;15.70;;
25639;SDS011;13497;48.322;16.204;2024-03-07T02:25:21;19.45;;;13.27;;
25639;SDS011;13497;48.322;16.204;2024-03-07T02:27:46;18.95;;;13.75;;
25639;SDS011;13497;48.322;16.204;2024-03-07T02:30:12;19.08;;;13.38;;
25639;SDS011;13497;48.322;16.204;2024-03-07T02:32:38;21.98;;;12.98;;
25639;SDS011;13497;48.322;16.204;2024-03-07T02:35:04;19.00;;;12.23;;
25639;SDS011;13497;48.322;16.204;2024-03-07T02:37:30;22.60;;;12.40;;
25639;SDS011;13497;48.322;16.204;2024-03-07T02:39:56;21.13;;;12.77;;
25639;SDS011;13497;48.322;16.204;2024-03-07T02:42:22;18.65;;;12.10;;
25639;SDS011;13497;48.322;16.204;2024-03-07T02:44:48;20.20;;;12.65;;
25639;SDS011;13497;48.322;16.204;2024-03-07T02:47:14;17.50;;;10.57;;
25639;SDS011;13497;48.322;16.204;2024-03-07T02:49:39;19.33;;;12.77;;
25639;SDS011;13497;48.322;16.204;2024-03-07T02:52:05;19.63;;;13.13;;
25639;SDS011;13497;48.322;16.204;2024-03-07T02:54:33;18.58;;;12.63;;
25639;SDS011;13497;48.322;16.204;2024-03-07T02:56:59;15.57;;;10.77;;
25639;SDS011;13497;48.322;16.204;2024-03-07T02:59:25;18.25;;;12.82;;
25639;SDS011;13497;48.322;16.204;2024-03-07T03:01:50;17.73;;;12.27;;
25639;SDS011;13497;48.322;16.204;2024-03-07T03:04:17;17.88;;;11.48;;
25639;SDS011;13497;48.322;16.204;2024-03-07T03:06:43;16.42;;;10.75;;
25639;SDS011;13497;48.322;16.204;2024-03-07T03:09:08;18.30;;;10.90;;
25639;SDS011;13497;48.322;16.204;2024-03-07T03:11:38;21.02;;;11.43;;
25639;SDS011;13497;48.322;16.204;2024-03-07T03:14:04;18.08;;;11.18;;
25639;SDS011;13497;48.322;16.204;2024-03-07T03:16:30;18.23;;;11.02;;
25639;SDS011;13497;48.322;16.204;2024-03-07T03:18:56;16.65;;;11.90;;
25639;SDS011;13497;48.322;16.204;2024-03-07T03:21:23;15.10;;;10.70;;
25639;SDS011;13497;48.322;16.204;2024-03-07T03:23:48;19.35;;;11.35;;
25639;SDS011;13497;48.322;16.204;2024-03-07T03:26:14;13.93;;;9.57;;
25639;SDS011;13497;48.322;16.204;2024-03-07T03:28:40;18.08;;;10.90;;
25639;SDS011;13497;48.322;16.204;2024-03-07T03:31:07;18.38;;;12.70;;
25639;SDS011;13497;48.322;16.204;2024-03-07T03:38:24;15.57;;;10.73;;
25639;SDS011;13497;48.322;16.204;2024-03-07T03:40:50;19.00;;;12.48;;
25639;SDS011;13497;48.322;16.204;2024-03-07T03:43:16;17.17;;;9.30;;
25639;SDS011;13497;48.322;16.204;2024-03-07T03:45:42;16.80;;;11.68;;
25639;SDS011;13497;48.322;16.204;2024-03-07T03:48:07;17.55;;;11.73;;
25639;SDS011;13497;48.322;16.204;2024-03-07T03:50:33;17.08;;;11.73;;
25639;SDS011;13497;48.322;16.204;2024-03-07T03:52:59;15.60;;;10.90;;
25639;SDS011;13497;48.322;16.204;2024-03-07T03:55:27;16.77;;;11.10;;
25639;SDS011;13497;48.322;16.204;2024-03-07T03:57:53;20.80;;;18.60;;
25639;SDS011;13497;48.322;16.204;2024-03-07T04:00:18;14.45;;;10.10;;
25639;SDS011;13497;48.322;16.204;2024-03-07T04:02:47;16.23;;;9.27;;
25639;SDS011;13497;48.322;16.204;2024-03-07T04:05:14;18.50;;;11.85;;
25639;SDS011;13497;48.322;16.204;2024-03-07T04:07:41;13.90;;;9.35;;
25639;SDS011;13497;48.322;16.204;2024-03-07T04:10:07;15.60;;;10.30;;
25639;SDS011;13497;48.322;16.204;2024-03-07T04:19:51;18.25;;;13.48;;
25639;SDS011;13497;48.322;16.204;2024-03-07T04:22:17;15.13;;;9.02;;
25639;SDS011;13497;48.322;16.204;2024-03-07T04:24:45;15.15;;;9.68;;
25639;SDS011;13497;48.322;16.204;2024-03-07T04:27:13;15.85;;;9.80;;
25639;SDS011;13497;48.322;16.204;2024-03-07T04:29:38;14.48;;;9.90;;
25639;SDS011;13497;48.322;16.204;2024-03-07T04:32:04;14.70;;;10.98;;
25639;SDS011;13497;48.322;16.204;2024-03-07T04:34:30;14.35;;;9.40;;
25639;SDS011;13497;48.322;16.204;2024-03-07T04:36:59;16.30;;;9.98;;
25639;SDS011;13497;48.322;16.204;2024-03-07T04:39:31;15.63;;;11.30;;
25639;SDS011;13497;48.322;16.204;2024-03-07T04:42:00;15.75;;;9.93;;
25639;SDS011;13497;48.322;16.204;2024-03-07T04:44:31;16.23;;;10.65;;
25639;SDS011;13497;48.322;16.204;2024-03-07T04:46:58;14.90;;;9.13;;
25639;SDS011;13497;48.322;16.204;2024-03-07T04:49:26;17.33;;;11.13;;
25639;SDS011;13497;48.322;16.204;2024-03-07T04:51:53;16.48;;;10.82;;
25639;SDS011;13497;48.322;16.204;2024-03-07T04:56:46;14.23;;;10.48;;
25639;SDS011;13497;48.322;16.204;2024-03-07T04:59:13;15.18;;;9.32;;
25639;SDS011;13497;48.322;16.204;2024-03-07T05:01:40;14.70;;;9.18;;
25639;SDS011;13497;48.322;16.204;2024-03-07T05:04:06;13.77;;;8.88;;
25639;SDS011;13497;48.322;16.204;2024-03-07T05:06:32;15.13;;;10.45;;
25639;SDS011;13497;48.322;16.204;2024-03-07T05:09:01;20.17;;;11.93;;
25639;SDS011;13497;48.322;16.204;2024-03-07T05:13:54;19.67;;;16.40;;
25639;SDS011;13497;48.322;16.204;2024-03-07T05:16:20;14.93;;;10.38;;
25639;SDS011;13497;48.322;16.204;2024-03-07T05:18:46;14.27;;;10.32;;
25639;SDS011;13497;48.322;16.204;2024-03-07T05:21:12;14.23;;;11.38;;
25639;SDS011;13497;48.322;16.204;2024-03-07T05:24:13;14.38;;;9.65;;
25639;SDS011;13497;48.322;16.204;2024-03-07T05:26:38;16.00;;;9.27;;
25639;SDS011;13497;48.322;16.204;2024-03-07T05:29:06;15.60;;;9.07;;
25639;SDS011;13497;48.322;16.204;2024-03-07T05:31:33;15.00;;;9.77;;
25639;SDS011;13497;48.322;16.204;2024-03-07T05:34:00;16.90;;;8.52;;
25639;SDS011;13497;48.322;16.204;2024-03-07T05:36:29;13.93;;;8.98;;
25639;SDS011;13497;48.322;16.204;2024-03-07T05:38:58;17.30;;;9.77;;
25639;SDS011;13497;48.322;16.204;2024-03-07T05:41:33;16.90;;;10.80;;
25639;SDS011;13497;48.322;16.204;2024-03-07T05:43:59;13.63;;;9.07;;
25639;SDS011;13497;48.322;16.204;2024-03-07T05:46:25;15.32;;;9.07;;
25639;SDS011;13497;48.322;16.204;2024-03-07T05:48:51;18.13;;;10.20;;
25639;SDS011;13497;48.322;16.204;2024-03-07T05:51:21;13.82;;;9.10;;
25639;SDS011;13497;48.322;16.204;2024-03-07T05:53:48;17.15;;;10.23;;
25639;SDS011;13497;48.322;16.204;2024-03-07T05:56:14;22.42;;;12.25;;
25639;SDS011;13497;48.322;16.204;2024-03-07T05:58:39;31.50;;;16.45;;
25639;SDS011;13497;48.322;16.204;2024-03-07T06:01:05;18.88;;;10.25;;
25639;SDS011;13497;48.322;16.204;2024-03-07T06:03:33;15.38;;;10.10;;
25639;SDS011;13497;48.322;16.204;2024-03-07T06:05:59;18.00;;;9.80;;
25639;SDS011;13497;48.322;16.204;2024-03-07T06:08:25;14.73;;;9.82;;
25639;SDS011;13497;48.322;16.204;2024-03-07T06:10:52;15.05;;;8.85;;
25639;SDS011;13497;48.322;16.204;2024-03-07T06:13:18;15.23;;;10.63;;
25639;SDS011;13497;48.322;16.204;2024-03-07T06:15:44;15.68;;;10.38;;
25639;SDS011;13497;48.322;16.204;2024-03-07T06:18:11;26.65;;;11.32;;
25639;SDS011;13497;48.322;16.204;2024-03-07T06:20:39;15.20;;;9.98;;
25639;SDS011;13497;48.322;16.204;2024-03-07T06:23:06;15.30;;;9.93;;
25639;SDS011;13497;48.322;16.204;2024-03-07T06:25:32;16.90;;;9.95;;
25639;SDS011;13497;48.322;16.204;2024-03-07T06:28:17;27.15;;;13.70;;
25639;SDS011;13497;48.322;16.204;2024-03-07T06:30:45;14.27;;;9.82;;
25639;SDS011;13497;48.322;16.204;2024-03-07T06:33:12;14.63;;;10.77;;
25639;SDS011;13497;48.322;16.204;2024-03-07T06:35:38;16.13;;;9.90;;
25639;SDS011;13497;48.322;16.204;2024-03-07T06:38:11;17.02;;;9.82;;
25639;SDS011;13497;48.322;16.204;2024-03-07T06:40:37;14.98;;;10.73;;
25639;SDS011;13497;48.322;16.204;2024-03-07T06:43:05;17.17;;;11.90;;
25639;SDS011;13497;48.322;16.204;2024-03-07T06:45:37;16.38;;;9.68;;
25639;SDS011;13497;48.322;16.204;2024-03-07T06:48:06;24.98;;;11.98;;
25639;SDS011;13497;48.322;16.204;2024-03-07T06:50:33;17.40;;;9.82;;
25639;SDS011;13497;48.322;16.204;2024-03-07T06:52:59;17.08;;;15.27;;
25639;SDS011;13497;48.322;16.204;2024-03-07T06:55:25;15.10;;;9.85;;
25639;SDS011;13497;48.322;16.204;2024-03-07T06:57:52;17.15;;;10.35;;
25639;SDS011;13497;48.322;16.204;2024-03-07T07:00:18;17.83;;;11.30;;
25639;SDS011;13497;48.322;16.204;2024-03-07T07:02:45;15.43;;;11.57;;
25639;SDS011;13497;48.322;16.204;2024-03-07T07:07:42;15.85;;;9.35;;
25639;SDS011;13497;48.322;16.204;2024-03-07T07:10:11;16.00;;;9.98;;
25639;SDS011;13497;48.322;16.204;2024-03-07T07:12:47;15.25;;;11.38;;
25639;SDS011;13497;48.322;16.204;2024-03-07T07:15:14;15.15;;;10.50;;
25639;SDS011;13497;48.322;16.204;2024-03-07T07:17:42;16.20;;;10.63;;
25639;SDS011;13497;48.322;16.204;2024-03-07T07:20:12;16.25;;;10.52;;
25639;SDS011;13497;48.322;16.204;2024-03-07T07:22:42;25.77;;;11.90;;
25639;SDS011;13497;48.322;16.204;2024-03-07T07:27:44;11.13;;;9.13;;
25639;SDS011;13497;48.322;16.204;2024-03-07T07:32:40;15.43;;;8.90;;
25639;SDS011;13497;48.322;16.204;2024-03-07T07:35:08;17.65;;;15.80;;
25639;SDS011;13497;48.322;16.204;2024-03-07T07:37:40;20.23;;;18.13;;
25639;SDS011;13497;48.322;16.204;2024-03-07T07:40:20;14.90;;;9.38;;
25639;SDS011;13497;48.322;16.204;2024-03-07T07:42:48;15.45;;;9.82;;
25639;SDS011;13497;48.322;16.204;2024-03-07T07:45:16;14.63;;;11.60;;
25639;SDS011;13497;48.322;16.204;2024-03-07T07:47:44;13.82;;;9.35;;
25639;SDS011;13497;48.322;16.204;2024-03-07T07:50:17;13.70;;;8.70;;
25639;SDS011;13497;48.322;16.204;2024-03-07T07:52:48;13.55;;;8.48;;
25639;SDS011;13497;48.322;16.204;2024-03-07T07:55:19;19.90;;;9.90;;
25639;SDS011;13497;48.322;16.204;2024-03-07T07:57:50;13.02;;;8.93;;
25639;SDS011;13497;48.322;16.204;2024-03-07T08:00:18;11.85;;;8.68;;
25639;SDS011;13497;48.322;16.204;2024-03-07T08:02:55;13.25;;;9.55;;
25639;SDS011;13497;48.322;16.204;2024-03-07T08:05:22;13.00;;;8.73;;
25639;SDS011;13497;48.322;16.204;2024-03-07T08:07:49;15.45;;;9.02;;
25639;SDS011;13497;48.322;16.204;2024-03-07T08:10:17;16.83;;;13.80;;
25639;SDS011;13497;48.322;16.204;2024-03-07T08:12:48;13.00;;;9.63;;
25639;SDS011;13497;48.322;16.204;2024-03-07T08:15:14;12.27;;;9.27;;
25639;SDS011;13497;48.322;16.204;2024-03-07T08:17:43;18.08;;;8.48;;
25639;SDS011;13497;48.322;16.204;2024-03-07T08:20:10;12.70;;;8.38;;
25639;SDS011;13497;48.322;16.204;2024-03-07T08:22:38;12.65;;;8.80;;
25639;SDS011;13497;48.322;16.204;2024-03-07T08:25:06;13.75;;;10.52;;
25639;SDS011;13497;48.322;16.204;2024-03-07T08:27:36;12.18;;;9.15;;
25639;SDS011;13497;48.322;16.204;2024-03-07T08:30:03;12.88;;;8.45;;
25639;SDS011;13497;48.322;16.204;2024-03-07T08:32:31;13.52;;;7.60;;
25639;SDS011;13497;48.322;16.204;2024-03-07T08:34:59;20.30;;;18.30;;
25639;SDS011;13497;48.322;16.204;2024-03-07T08:37:31;12.48;;;9.05;;
25639;SDS011;13497;48.322;16.204;2024-03-07T08:39:59;15.77;;;8.88;;
25639;SDS011;13497;48.322;16.204;2024-03-07T08:42:26;15.98;;;9.32;;
25639;SDS011;13497;48.322;16.204;2024-03-07T08:44:52;11.82;;;7.82;;
25639;SDS011;13497;48.322;16.204;2024-03-07T08:47:17;12.52;;;8.40;;
25639;SDS011;13497;48.322;16.204;2024-03-07T08:49:43;18.38;;;11.10;;
25639;SDS011;13497;48.322;16.204;2024-03-07T08:52:09;13.50;;;8.95;;
25639;SDS011;13497;48.322;16.204;2024-03-07T08:54:34;13.35;;;9.18;;
25639;SDS011;13497;48.322;16.204;2024-03-07T08:57:00;13.52;;;9.52;;
25639;SDS011;13497;48.322;16.204;2024-03-07T08:59:26;12.90;;;8.05;;
25639;SDS011;13497;48.322;16.204;2024-03-07T09:01:51;15.02;;;8.40;;
25639;SDS011;13497;48.322;16.204;2024-03-07T09:04:17;15.68;;;12.05;;
25639;SDS011;13497;48.322;16.204;2024-03-07T09:06:43;17.15;;;9.98;;
25639;SDS011;13497;48.322;16.204;2024-03-07T09:09:11;15.27;;;10.05;;
25639;SDS011;13497;48.322;16.204;2024-03-07T09:11:39;16.60;;;9.43;;
25639;SDS011;13497;48.322;16.204;2024-03-07T09:14:07;15.52;;;10.88;;
25639;SDS011;13497;48.322;16.204;2024-03-07T09:16:34;17.38;;;9.07;;
25639;SDS011;13497;48.322;16.204;2024-03-07T09:19:01;18.55;;;16.67;;
25639;SDS011;13497;48.322;16.204;2024-03-07T09:26:19;13.05;;;10.00;;
25639;SDS011;13497;48.322;16.204;2024-03-07T09:28:45;16.42;;;11.20;;
25639;SDS011;13497;48.322;16.204;2024-03-07T09:31:11;18.10;;;10.38;;
25639;SDS011;13497;48.322;16.204;2024-03-07T09:33:40;20.08;;;12.18;;
25639;SDS011;13497;48.322;16.204;2024-03-07T09:36:05;16.60;;;11.05;;
25639;SDS011;13497;48.322;16.204;2024-03-07T09:38:32;21.02;;;12.07;;
25639;SDS011;13497;48.322;16.204;2024-03-07T09:40:57;14.85;;;10.88;;
25639;SDS011;13497;48.322;16.204;2024-03-07T09:43:24;16.58;;;11.77;;
25639;SDS011;13497;48.322;16.204;2024-03-07T09:45:53;16.73;;;12.13;;
25639;SDS011;13497;48.322;16.204;2024-03-07T09:48:20;17.48;;;10.70;;
25639;SDS011;13497;48.322;16.204;2024-03-07T09:50:50;19.67;;;10.77;;
25639;SDS011;13497;48.322;16.204;2024-03-07T09:53:20;18.67;;;10.88;;
25639;SDS011;13497;48.322;16.204;2024-03-07T09:55:46;23.23;;;20.95;;
25639;SDS011;13497;48.322;16.204;2024-03-07T09:58:12;19.73;;;12.88;;
25639;SDS011;13497;48.322;16.204;2024-03-07T10:00:44;21.23;;;12.57;;
25639;SDS011;13497;48.322;16.204;2024-03-07T10:03:12;21.15;;;13.35;;
25639;SDS011;13497;48.322;16.204;2024-03-07T10:05:41;17.17;;;10.25;;
25639;SDS011;13497;48.322;16.204;2024-03-07T10:08:07;17.58;;;11.95;;
25639;SDS011;13497;48.322;16.204;2024-03-07T10:10:33;18.27;;;14.18;;
25639;SDS011;13497;48.322;16.204;2024-03-07T10:12:58;17.77;;;14.27;;
25639;SDS011;13497;48.322;16.204;2024-03-07T10:15:31;17.08;;;13.13;;
25639;SDS011;13497;48.322;16.204;2024-03-07T10:17:58;18.58;;;13.43;;
25639;SDS011;13497;48.322;16.204;2024-03-07T10:25:16;22.48;;;20.23;;
25639;SDS011;13497;48.322;16.204;2024-03-07T10:27:43;20.27;;;12.18;;
25639;SDS011;13497;48.322;16.204;2024-03-07T10:30:13;19.02;;;13.52;;
25639;SDS011;13497;48.322;16.204;2024-03-07T10:32:45;18.42;;;11.57;;
25639;SDS011;13497;48.322;16.204;2024-03-07T10:35:23;19.95;;;11.77;;
25639;SDS011;13497;48.322;16.204;2024-03-07T10:37:52;21.02;;;13.55;;
25639;SDS011;13497;48.322;16.204;2024-03-07T10:40:22;16.05;;;11.55;;
25639;SDS011;13497;48.322;16.204;2024-03-07T10:42:50;19.65;;;10.77;;
25639;SDS011;13497;48.322;16.204;2024-03-07T10:45:21;21.42;;;12.07;;
25639;SDS011;13497;48.322;16.204;2024-03-07T10:47:55;17.90;;;13.13;;
25639;SDS011;13497;48.322;16.204;2024-03-07T10:52:59;19.50;;;12.60;;
25639;SDS011;13497;48.322;16.204;2024-03-07T10:55:37;19.75;;;10.93;;
25639;SDS011;13497;48.322;16.204;2024-03-07T10:58:19;23.55;;;13.13;;
25639;SDS011;13497;48.322;16.204;2024-03-07T11:01:11;21.90;;;15.25;;
25639;SDS011;13497;48.322;16.204;2024-03-07T11:03:39;23.83;;;14.10;;
25639;SDS011;13497;48.322;16.204;2024-03-07T11:06:06;29.02;;;11.95;;
25639;SDS011;13497;48.322;16.204;2024-03-07T11:08:36;19.73;;;13.23;;
25639;SDS011;13497;48.322;16.204;2024-03-07T11:11:02;23.15;;;13.65;;
25639;SDS011;13497;48.322;16.204;2024-03-07T11:13:29;24.00;;;13.00;;
25639;SDS011;13497;48.322;16.204;2024-03-07T11:15:56;25.77;;;15.15;;
25639;SDS011;13497;48.322;16.204;2024-03-07T11:18:25;22.27;;;17.02;;
25639;SDS011;13497;48.322;16.204;2024-03-07T11:20:51;23.10;;;14.65;;
25639;SDS011;13497;48.322;16.204;2024-03-07T11:23:25;25.60;;;15.68;;
25639;SDS011;13497;48.322;16.204;2024-03-07T11:25:54;31.00;;;18.85;;
25639;SDS011;13497;48.322;16.204;2024-03-07T11:28:27;30.55;;;23.75;;
25639;SDS011;13497;48.322;16.204;2024-03-07T11:35:48;26.05;;;15.27;;
25639;SDS011;13497;48.322;16.204;2024-03-07T11:38:14;28.25;;;17.65;;
25639;SDS011;13497;48.322;16.204;2024-03-07T11:43:07;25.25;;;15.82;;
25639;SDS011;13497;48.322;16.204;2024-03-07T11:45:33;28.50;;;16.35;;
25639;SDS011;13497;48.322;16.204;2024-03-07T11:48:03;24.98;;;14.85;;
25639;SDS011;13497;48.322;16.204;2024-03-07T11:50:33;28.45;;;16.90;;
25639;SDS011;13497;48.322;16.204;2024-03-07T11:53:02;25.33;;;17.38;;
25639;SDS011;13497;48.322;16.204;2024-03-07T11:55:32;29.48;;;16.77;;
25639;SDS011;13497;48.322;16.204;2024-03-07T11:58:18;26.85;;;16.50;;
25639;SDS011;13497;48.322;16.204;2024-03-07T12:00:48;29.85;;;14.90;;
25639;SDS011;13497;48.322;16.204;2024-03-07T12:03:17;27.73;;;16.15;;
25639;SDS011;13497;48.322;16.204;2024-03-07T12:05:50;26.27;;;16.27;;
25639;SDS011;13497;48.322;16.204;2024-03-07T12:13:10;25.83;;;15.80;;
25639;SDS011;13497;48.322;16.204;2024-03-07T12:15:41;27.42;;;16.45;;
25639;SDS011;13497;48.322;16.204;2024-03-07T12:18:08;25.70;;;17.45;;
25639;SDS011;13497;48.322;16.204;2024-03-07T12:20:37;30.80;;;22.85;;
25639;SDS011;13497;48.322;16.204;2024-03-07T12:23:06;26.52;;;18.10;;
25639;SDS011;13497;48.322;16.204;2024-03-07T12:25:37;33.40;;;18.73;;
25639;SDS011;13497;48.322;16.204;2024-03-07T12:30:32;35.70;;;19.08;;
25639;SDS011;13497;48.322;16.204;2024-03-07T12:32:59;28.83;;;17.27;;
25639;SDS011;13497;48.322;16.204;2024-03-07T12:35:27;30.13;;;16.35;;
25639;SDS011;13497;48.322;16.204;2024-03-07T12:37:53;30.67;;;17.33;;
25639;SDS011;13497;48.322;16.204;2024-03-07T12:40:19;26.58;;;17.88;;
25639;SDS011;13497;48.322;16.204;2024-03-07T12:42:48;30.92;;;18.95;;
25639;SDS011;13497;48.322;16.204;2024-03-07T12:45:18;25.85;;;16.48;;
25639;SDS011;13497;48.322;16.204;2024-03-07T12:47:47;33.83;;;20.85;;
25639;SDS011;13497;48.322;16.204;2024-03-07T12:50:19;28.67;;;17.50;;
25639;SDS011;13497;48.322;16.204;2024-03-07T12:52:49;29.63;;;18.77;;
25639;SDS011;13497;48.322;16.204;2024-03-07T12:55:15;30.00;;;19.38;;
25639;SDS011;13497;48.322;16.204;2024-03-07T12:57:46;26.08;;;17.10;;
25639;SDS011;13497;48.322;16.204;2024-03-07T13:00:13;23.63;;;15.48;;
25639;SDS011;13497;48.322;16.204;2024-03-07T13:02:45;24.02;;;16.17;;
25639;SDS011;13497;48.322;16.204;2024-03-07T13:05:14;25.05;;;16.00;;
25639;SDS011;13497;48.322;16.204;2024-03-07T13:07:47;24.33;;;16.25;;
25639;SDS011;13497;48.322;16.204;2024-03-07T13:10:14;23.95;;;18.40;;
25639;SDS011;13497;48.322;16.204;2024-03-07T13:12:41;22.40;;;14.07;;
25639;SDS011;13497;48.322;16.204;2024-03-07T13:15:10;28.02;;;15.95;;
25639;SDS011;13497;48.322;16.204;2024-03-07T13:17:36;25.38;;;14.95;;
25639;SDS011;13497;48.322;16.204;2024-03-07T13:20:02;22.40;;;14.90;;
25639;SDS011;13497;48.322;16.204;2024-03-07T13:22:36;24.40;;;14.57;;
25639;SDS011;13497;48.322;16.204;2024-03-07T13:25:07;22.73;;;14.65;;
25639;SDS011;13497;48.322;16.204;2024-03-07T13:28:24;22.63;;;15.85;;
25639;SDS011;13497;48.322;16.204;2024-03-07T13:30:27;21.17;;;15.07;;
25639;SDS011;13497;48.322;16.204;2024-03-07T13:32:56;22.83;;;13.73;;
25639;SDS011;13497;48.322;16.204;2024-03-07T13:35:24;22.60;;;15.45;;
25639;SDS011;13497;48.322;16.204;2024-03-07T13:37:54;28.80;;;19.98;;
25639;SDS011;13497;48.322;16.204;2024-03-07T13:40:21;24.10;;;15.40;;
25639;SDS011;13497;48.322;16.204;2024-03-07T13:42:48;24.48;;;15.88;;
25639;SDS011;13497;48.322;16.204;2024-03-07T13:45:17;20.40;;;14.55;;
25639;SDS011;13497;48.322;16.204;2024-03-07T13:47:47;24.88;;;17.27;;
25639;SDS011;13497;48.322;16.204;2024-03-07T13:50:14;24.38;;;16.35;;
25639;SDS011;13497;48.322;16.204;2024-03-07T13:52:41;24.25;;;16.98;;
25639;SDS011;13497;48.322;16.204;2024-03-07T13:55:19;22.13;;;15.80;;
25639;SDS011;13497;48.322;16.204;2024-03-07T13:57:49;23.17;;;15.32;;
25639;SDS011;13497;48.322;16.204;2024-03-07T14:00:25;21.77;;;15.45;;
25639;SDS011;13497;48.322;16.204;2024-03-07T14:05:56;24.30;;;17.70;;
25639;SDS011;13497;48.322;16.204;2024-03-07T14:08:34;25.35;;;17.20;;
25639;SDS011;13497;48.322;16.204;2024-03-07T14:11:32;28.95;;;16.00;;
25639;SDS011;13497;48.322;16.204;2024-03-07T14:31:45;26.65;;;17.13;;
25639;SDS011;13497;48.322;16.204;2024-03-07T14:36:56;28.08;;;18.80;;
25639;SDS011;13497;48.322;16.204;2024-03-07T14:39:27;26.10;;;17.35;;
25639;SDS011;13497;48.322;16.204;2024-03-07T14:41:57;31.10;;;18.52;;
25639;SDS011;13497;48.322;16.204;2024-03-07T14:44:26;25.60;;;18.27;;
25639;SDS011;13497;48.322;16.204;2024-03-07T14:46:57;29.88;;;20.42;;
25639;SDS011;13497;48.322;16.204;2024-03-07T14:49:30;27.48;;;18.48;;
25639;SDS011;13497;48.322;16.204;2024-03-07T14:51:57;28.50;;;16.98;;
25639;SDS011;13497;48.322;16.204;2024-03-07T14:54:23;30.67;;;19.73;;
25639;SDS011;13497;48.322;16.204;2024-03-07T14:56:51;29.77;;;18.38;;
25639;SDS011;13497;48.322;16.204;2024-03-07T14:59:17;29.20;;;18.92;;
25639;SDS011;13497;48.322;16.204;2024-03-07T15:01:43;33.58;;;19.60;;
25639;SDS011;13497;48.322;16.204;2024-03-07T15:04:09;25.73;;;18.67;;
25639;SDS011;13497;48.322;16.204;2024-03-07T15:06:39;30.88;;;18.65;;
25639;SDS011;13497;48.322;16.204;2024-03-07T15:09:07;33.30;;;18.60;;
25639;SDS011;13497;48.322;16.204;2024-03-07T15:11:35;32.25;;;19.98;;
25639;SDS011;13497;48.322;16.204;2024-03-07T15:14:05;34.38;;;20.73;;
25639;SDS011;13497;48.322;16.204;2024-03-07T15:16:37;29.20;;;17.88;;
25639;SDS011;13497;48.322;16.204;2024-03-07T15:19:07;35.20;;;19.95;;
25639;SDS011;13497;48.322;16.204;2024-03-07T15:21:35;35.80;;;28.00;;
25639;SDS011;13497;48.322;16.204;2024-03-07T15:24:02;33.90;;;21.30;;
25639;SDS011;13497;48.322;16.204;2024-03-07T15:26:28;34.70;;;20.42;;
25639;SDS011;13497;48.322;16.204;2024-03-07T15:28:56;36.25;;;23.85;;
25639;SDS011;13497;48.322;16.204;2024-03-07T15:31:22;36.05;;;21.27;;